createdAt,value
2022-09-21T00:01:52.951Z,1.63
2022-09-21T00:04:39.697Z,1.60
2022-09-21T00:07:26.784Z,1.60
2022-09-21T00:10:13.223Z,1.63
2022-09-21T00:13:03.051Z,1.80
2022-09-21T00:15:49.705Z,1.50
2022-09-21T00:18:39.081Z,1.70
2022-09-21T00:21:28.348Z,1.70
2022-09-21T00:24:14.828Z,1.47
2022-09-21T00:27:01.744Z,1.43
2022-09-21T00:29:48.732Z,1.70
2022-09-21T00:32:36.878Z,2.07
2022-09-21T00:35:25.286Z,1.70
2022-09-21T00:38:12.076Z,1.57
2022-09-21T00:40:58.797Z,1.67
2022-09-21T00:43:48.214Z,1.70
2022-09-21T00:46:36.432Z,2.00
2022-09-21T00:49:24.219Z,1.87
2022-09-21T00:52:14.975Z,1.80
2022-09-21T00:55:06.107Z,1.63
2022-09-21T00:57:56.042Z,2.47
2022-09-21T01:00:43.597Z,1.80
2022-09-21T01:03:32.466Z,2.00
2022-09-21T01:06:21.670Z,1.43
2022-09-21T01:09:11.017Z,1.90
2022-09-21T01:12:08.426Z,1.87
2022-09-21T01:15:06.312Z,1.97
2022-09-21T01:18:00.483Z,1.80
2022-09-21T01:21:21.183Z,1.70
2022-09-21T01:24:35.167Z,1.60
2022-09-21T01:27:42.675Z,1.57
2022-09-21T01:30:32.655Z,1.60
2022-09-21T01:33:26.041Z,1.83
2022-09-21T01:36:25.311Z,1.73
2022-09-21T01:39:18.779Z,1.77
2022-09-21T01:42:10.238Z,1.80
2022-09-21T01:44:59.643Z,1.43
2022-09-21T01:47:51.428Z,1.80
2022-09-21T01:50:47.021Z,1.83
2022-09-21T01:53:37.060Z,1.63
2022-09-21T01:56:28.967Z,1.67
2022-09-21T01:59:22.849Z,1.80
2022-09-21T02:02:14.942Z,1.87
2022-09-21T02:05:04.292Z,1.50
2022-09-21T02:07:52.501Z,1.60
2022-09-21T02:10:44.598Z,1.40
2022-09-21T02:13:35.212Z,1.80
2022-09-21T02:16:35.391Z,2.10
2022-09-21T02:19:31.424Z,2.07
2022-09-21T02:22:33.343Z,1.80
2022-09-21T02:25:30.267Z,2.00
2022-09-21T02:28:27.822Z,1.90
2022-09-21T02:31:19.021Z,1.63
2022-09-21T02:34:16.857Z,2.23
2022-09-21T02:37:10.444Z,2.30
2022-09-21T02:40:03.635Z,1.80
2022-09-21T02:42:54.952Z,2.13
2022-09-21T02:45:45.903Z,1.70
2022-09-21T02:48:36.971Z,1.87
2022-09-21T02:51:29.624Z,1.80
2022-09-21T02:54:20.884Z,1.77
2022-09-21T02:57:11.499Z,1.73
2022-09-21T02:59:58.371Z,1.70
2022-09-21T03:02:46.299Z,1.80
2022-09-21T03:05:32.884Z,1.80
2022-09-21T03:08:19.931Z,2.40
2022-09-21T03:11:07.114Z,2.17
2022-09-21T03:13:55.412Z,2.00
2022-09-21T03:16:42.127Z,2.00
2022-09-21T03:19:29.437Z,2.03
2022-09-21T03:22:17.620Z,2.07
2022-09-21T03:25:04.161Z,2.03
2022-09-21T03:27:53.878Z,1.90
2022-09-21T03:30:42.618Z,2.50
2022-09-21T03:33:29.727Z,2.40
2022-09-21T03:36:16.861Z,2.00
2022-09-21T03:39:03.674Z,2.53
2022-09-21T03:41:50.744Z,2.00
2022-09-21T03:44:38.416Z,2.10
2022-09-21T03:47:26.600Z,1.93
2022-09-21T03:50:13.376Z,2.40
2022-09-21T03:53:00.826Z,2.10
2022-09-21T03:55:47.628Z,2.43
2022-09-21T03:58:34.484Z,2.40
2022-09-21T04:01:21.337Z,2.23
2022-09-21T04:04:09.329Z,2.43
2022-09-21T04:06:55.890Z,2.60
2022-09-21T04:09:42.761Z,2.30
2022-09-21T04:12:29.284Z,2.50
2022-09-21T04:15:19.691Z,1.97
2022-09-21T04:18:06.563Z,2.13
2022-09-21T04:20:54.611Z,2.20
2022-09-21T04:23:41.760Z,2.33
2022-09-21T04:26:30.175Z,2.50
2022-09-21T04:29:18.044Z,2.90
2022-09-21T04:32:07.102Z,2.30
2022-09-21T04:34:53.909Z,2.37
2022-09-21T04:37:42.220Z,2.43
2022-09-21T04:40:30.156Z,2.37
2022-09-21T04:43:20.758Z,2.87
2022-09-21T04:46:11.371Z,2.30
2022-09-21T04:48:58.127Z,2.70
2022-09-21T04:51:44.799Z,2.70
2022-09-21T04:54:33.020Z,2.30
2022-09-21T04:57:19.739Z,2.40
2022-09-21T05:00:07.213Z,2.30
2022-09-21T05:02:53.819Z,2.40
2022-09-21T05:05:40.615Z,2.60
2022-09-21T05:08:42.912Z,2.77
2022-09-21T05:11:31.453Z,2.87
2022-09-21T05:14:18.377Z,2.40
2022-09-21T05:17:05.307Z,2.00
2022-09-21T05:19:52.435Z,2.77
2022-09-21T05:22:39.251Z,2.37
2022-09-21T05:25:26.174Z,2.47
2022-09-21T05:28:14.746Z,2.73
2022-09-21T05:31:17.749Z,2.53
2022-09-21T05:34:14.066Z,2.10
2022-09-21T05:37:06.768Z,2.50
2022-09-21T05:39:53.643Z,2.57
2022-09-21T05:42:41.083Z,2.47
2022-09-21T05:45:30.054Z,2.60
2022-09-21T05:48:19.253Z,2.57
2022-09-21T05:51:13.390Z,2.20
2022-09-21T05:54:08.994Z,1.90
2022-09-21T05:57:03.289Z,2.60
2022-09-21T06:00:00.633Z,2.23
2022-09-21T06:03:17.579Z,2.63
2022-09-21T06:06:04.476Z,2.20
2022-09-21T06:08:51.253Z,2.27
2022-09-21T06:11:37.997Z,2.53
2022-09-21T06:14:26.630Z,2.87
2022-09-21T06:17:13.422Z,2.40
2022-09-21T06:20:03.091Z,2.60
2022-09-21T06:22:49.819Z,2.53
2022-09-21T06:25:36.844Z,2.70
2022-09-21T06:28:23.291Z,2.40
2022-09-21T06:31:10.047Z,2.60
2022-09-21T06:33:57.343Z,2.47
2022-09-21T06:36:45.702Z,2.53
2022-09-21T06:39:32.249Z,2.80
2022-09-21T06:42:19.049Z,2.67
2022-09-21T06:45:07.417Z,2.53
2022-09-21T06:47:54.279Z,2.60
2022-09-21T06:50:41.141Z,2.63
2022-09-21T06:53:30.207Z,2.80
2022-09-21T06:56:16.868Z,2.80
2022-09-21T06:59:03.355Z,2.33
2022-09-21T07:01:50.146Z,2.80
2022-09-21T07:04:37.327Z,3.10
2022-09-21T07:07:23.649Z,2.60
2022-09-21T07:10:15.790Z,3.00
2022-09-21T07:13:07.172Z,2.90
2022-09-21T07:15:53.800Z,2.30
2022-09-21T07:18:43.749Z,2.67
2022-09-21T07:21:30.647Z,2.50
2022-09-21T07:24:17.496Z,2.60
2022-09-21T07:27:05.924Z,2.60
2022-09-21T07:29:52.719Z,2.40
2022-09-21T07:32:39.317Z,2.40
2022-09-21T07:35:26.457Z,2.50
2022-09-21T07:38:12.958Z,2.17
2022-09-21T07:41:03.190Z,2.20
2022-09-21T07:43:51.553Z,2.00
2022-09-21T07:46:41.319Z,2.10
2022-09-21T07:49:32.402Z,1.90
2022-09-21T07:52:19.492Z,2.00
2022-09-21T07:55:06.671Z,2.33
2022-09-21T07:58:16.065Z,2.27
2022-09-21T08:01:07.683Z,1.70
2022-09-21T08:03:56.093Z,2.00
2022-09-21T08:06:42.714Z,1.90
2022-09-21T08:09:29.517Z,1.80
2022-09-21T08:12:18.717Z,1.50
2022-09-21T08:15:06.544Z,1.67
2022-09-21T08:17:54.746Z,1.80
2022-09-21T08:20:42.869Z,1.53
2022-09-21T08:23:31.026Z,1.97
2022-09-21T08:26:19.793Z,1.90
2022-09-21T08:29:07.499Z,1.77
2022-09-21T08:31:54.504Z,1.77
2022-09-21T08:34:42.480Z,2.30
2022-09-21T08:37:29.580Z,1.70
2022-09-21T08:40:17.062Z,1.80
2022-09-21T08:43:08.596Z,1.50
2022-09-21T08:45:56.322Z,1.60
2022-09-21T08:48:47.995Z,1.30
2022-09-21T08:51:39.593Z,1.60
2022-09-21T08:54:31.802Z,1.60
2022-09-21T08:57:20.116Z,1.47
2022-09-21T09:00:14.527Z,1.30
2022-09-21T09:03:27.412Z,1.40
2022-09-21T09:06:26.606Z,1.50
2022-09-21T09:09:41.674Z,1.10
2022-09-21T09:12:48.846Z,1.13
2022-09-21T09:15:57.386Z,1.10
2022-09-21T09:18:50.250Z,1.10
2022-09-21T09:21:40.655Z,1.10
2022-09-21T09:24:35.968Z,1.30
2022-09-21T09:27:26.914Z,0.80
2022-09-21T09:30:18.781Z,0.97
2022-09-21T09:33:14.149Z,1.10
2022-09-21T09:36:04.543Z,0.83
2022-09-21T09:38:57.458Z,1.00
2022-09-21T09:42:02.077Z,1.30
2022-09-21T09:45:04.848Z,1.10
2022-09-21T09:48:03.706Z,0.80
2022-09-21T09:50:50.474Z,0.90
2022-09-21T09:53:38.563Z,0.80
2022-09-21T09:56:25.239Z,0.93
2022-09-21T09:59:20.481Z,0.70
2022-09-21T10:02:19.794Z,0.90
2022-09-21T10:05:08.937Z,0.90
2022-09-21T10:07:55.458Z,0.80
2022-09-21T10:10:42.672Z,0.67
2022-09-21T10:13:31.661Z,0.60
2022-09-21T10:16:24.094Z,0.70
2022-09-21T10:19:17.132Z,0.60
2022-09-21T10:22:06.112Z,0.77
2022-09-21T10:24:55.033Z,0.70
2022-09-21T10:27:46.782Z,0.83
2022-09-21T10:30:36.237Z,0.80
2022-09-21T10:33:24.423Z,0.80
2022-09-21T10:36:27.662Z,0.90
2022-09-21T10:39:20.679Z,0.93
2022-09-21T10:42:13.898Z,0.60
2022-09-21T10:45:11.752Z,1.00
2022-09-21T10:48:00.830Z,0.80
2022-09-21T10:50:50.609Z,0.60
2022-09-21T10:53:38.573Z,0.50
2022-09-21T10:56:25.809Z,0.80
2022-09-21T10:59:21.991Z,0.70
2022-09-21T11:02:29.764Z,0.83
2022-09-21T11:05:22.794Z,0.70
2022-09-21T11:08:17.655Z,0.80
2022-09-21T11:11:12.181Z,0.50
2022-09-21T11:14:06.747Z,0.80
2022-09-21T11:16:58.650Z,0.60
2022-09-21T11:19:51.153Z,0.50
2022-09-21T11:22:45.122Z,0.60
2022-09-21T11:25:42.359Z,0.70
2022-09-21T11:28:34.393Z,0.60
2022-09-21T11:32:05.982Z,1.00
2022-09-21T11:35:27.740Z,0.60
2022-09-21T11:38:25.834Z,0.60
2022-09-21T11:41:35.855Z,0.60
2022-09-21T11:44:40.208Z,0.70
2022-09-21T11:47:48.431Z,0.80
2022-09-21T11:50:42.985Z,1.07
2022-09-21T11:53:49.964Z,0.63
2022-09-21T11:56:47.560Z,0.83
2022-09-21T12:00:00.866Z,0.80
2022-09-21T12:03:23.767Z,0.77
2022-09-21T12:06:39.388Z,0.60
2022-09-21T12:09:53.378Z,0.93
2022-09-21T12:12:49.670Z,0.60
2022-09-21T12:15:44.860Z,0.60
2022-09-21T12:18:36.893Z,0.80
2022-09-21T12:21:26.882Z,0.63
2022-09-21T12:24:17.887Z,0.70
2022-09-21T12:27:12.665Z,0.80
2022-09-21T12:30:05.627Z,0.80
2022-09-21T12:32:58.106Z,0.60
2022-09-21T12:35:47.848Z,0.60
2022-09-21T12:38:40.957Z,0.50
2022-09-21T12:41:35.691Z,1.00
2022-09-21T12:44:29.952Z,0.80
2022-09-21T12:47:18.058Z,0.87
2022-09-21T12:50:14.630Z,0.50
2022-09-21T12:53:02.407Z,0.50
2022-09-21T12:55:56.992Z,0.57
2022-09-21T12:58:52.188Z,0.60
2022-09-21T13:01:44.934Z,0.50
2022-09-21T13:04:45.336Z,0.50
2022-09-21T13:08:08.038Z,0.50
2022-09-21T13:11:01.051Z,0.70
2022-09-21T13:13:51.409Z,0.53
2022-09-21T13:16:40.669Z,0.67
2022-09-21T13:19:31.247Z,0.47
2022-09-21T13:22:25.665Z,0.90
2022-09-21T13:25:22.720Z,0.60
2022-09-21T13:28:23.943Z,0.50
2022-09-21T13:31:43.745Z,0.50
2022-09-21T13:34:36.439Z,0.80
2022-09-21T13:37:33.478Z,0.70
2022-09-21T13:40:50.299Z,0.70
2022-09-21T13:43:49.337Z,0.50
2022-09-21T13:47:06.408Z,0.50
2022-09-21T13:49:58.382Z,0.50
2022-09-21T13:52:52.127Z,0.57
2022-09-21T13:55:43.179Z,0.80
2022-09-21T13:58:35.441Z,0.73
2022-09-21T14:01:45.738Z,0.60
2022-09-21T14:04:36.787Z,0.70
2022-09-21T14:07:31.217Z,0.50
2022-09-21T14:10:22.361Z,0.53
2022-09-21T14:13:27.229Z,0.50
2022-09-21T14:16:52.088Z,0.70
2022-09-21T14:20:04.961Z,0.70
2022-09-21T14:23:13.407Z,0.60
2022-09-21T14:26:02.434Z,0.70
2022-09-21T14:28:52.730Z,0.60
2022-09-21T14:31:40.226Z,0.70
2022-09-21T14:34:35.883Z,0.80
2022-09-21T14:37:29.596Z,0.50
2022-09-21T14:40:23.768Z,0.70
2022-09-21T14:43:16.149Z,0.60
2022-09-21T14:46:17.547Z,0.50
2022-09-21T14:49:20.826Z,0.80
2022-09-21T14:52:27.836Z,0.60
2022-09-21T14:55:23.843Z,1.10
2022-09-21T14:58:28.490Z,0.80
2022-09-21T15:01:37.865Z,0.60
2022-09-21T15:04:32.088Z,0.80
2022-09-21T15:07:48.061Z,0.67
2022-09-21T15:10:58.244Z,0.77
2022-09-21T15:14:17.995Z,0.60
2022-09-21T15:17:24.203Z,0.70
2022-09-21T15:20:18.373Z,1.20
2022-09-21T15:23:19.175Z,0.80
2022-09-21T15:26:09.519Z,0.60
2022-09-21T15:29:15.262Z,0.80
2022-09-21T15:32:02.732Z,0.60
2022-09-21T15:34:50.418Z,0.60
2022-09-21T15:37:39.706Z,0.60
2022-09-21T15:40:28.334Z,0.70
2022-09-21T15:43:20.737Z,0.70
2022-09-21T15:46:12.635Z,0.70
2022-09-21T15:49:01.690Z,0.80
2022-09-21T15:51:53.381Z,0.80
2022-09-21T15:54:44.517Z,0.90
2022-09-21T15:57:38.971Z,0.63
2022-09-21T16:00:30.387Z,0.57
2022-09-21T16:03:22.186Z,0.60
2022-09-21T16:06:25.449Z,0.63
2022-09-21T16:09:39.810Z,0.60
2022-09-21T16:12:40.531Z,0.70
2022-09-21T16:15:28.744Z,0.80
2022-09-21T16:18:35.215Z,0.63
2022-09-21T16:21:23.920Z,0.67
2022-09-21T16:24:20.119Z,0.77
2022-09-21T16:27:07.035Z,0.63
2022-09-21T16:29:55.256Z,0.70
2022-09-21T16:32:42.377Z,0.70
2022-09-21T16:35:31.710Z,0.60
2022-09-21T16:38:20.411Z,0.77
2022-09-21T16:41:08.986Z,0.57
2022-09-21T16:43:58.580Z,0.70
2022-09-21T16:46:46.265Z,0.70
2022-09-21T16:49:35.187Z,0.73
2022-09-21T16:52:23.594Z,0.80
2022-09-21T16:55:11.788Z,0.70
2022-09-21T16:58:00.319Z,0.70
2022-09-21T17:00:47.406Z,0.70
2022-09-21T17:03:34.895Z,0.70
2022-09-21T17:06:22.883Z,0.90
2022-09-21T17:09:28.387Z,0.90
2022-09-21T17:12:18.245Z,0.60
2022-09-21T17:15:07.833Z,0.70
2022-09-21T17:17:54.621Z,0.90
2022-09-21T17:20:42.861Z,0.70
2022-09-21T17:23:29.956Z,0.73
2022-09-21T17:26:19.439Z,0.70
2022-09-21T17:29:19.800Z,0.87
2022-09-21T17:32:10.511Z,1.17
2022-09-21T17:35:02.745Z,0.70
2022-09-21T17:37:49.600Z,0.97
2022-09-21T17:40:37.609Z,0.77
2022-09-21T17:43:38.277Z,0.60
2022-09-21T17:46:32.789Z,0.60
2022-09-21T17:49:20.008Z,0.80
2022-09-21T17:52:33.414Z,1.00
2022-09-21T17:55:20.760Z,1.00
2022-09-21T17:58:19.233Z,1.33
2022-09-21T18:01:12.897Z,1.30
2022-09-21T18:03:59.637Z,1.30
2022-09-21T18:06:46.749Z,1.13
2022-09-21T18:09:33.827Z,1.03
2022-09-21T18:12:46.349Z,1.40
2022-09-21T18:15:46.989Z,1.50
2022-09-21T18:18:45.294Z,2.07
2022-09-21T18:21:36.547Z,2.00
2022-09-21T18:24:31.115Z,1.90
2022-09-21T18:27:20.094Z,1.80
2022-09-21T18:30:13.083Z,1.67
2022-09-21T18:33:13.240Z,1.63
2022-09-21T18:36:18.158Z,1.90
2022-09-21T18:39:22.959Z,1.83
2022-09-21T18:42:25.738Z,1.77
2022-09-21T18:45:18.649Z,2.00
2022-09-21T18:48:25.198Z,1.87
2022-09-21T18:51:24.160Z,1.67
2022-09-21T18:54:20.544Z,1.77
2022-09-21T18:57:14.622Z,1.97
2022-09-21T19:00:01.858Z,1.70
2022-09-21T19:03:15.273Z,1.73
2022-09-21T19:06:27.471Z,2.17
2022-09-21T19:09:42.019Z,1.90
2022-09-21T19:13:00.219Z,1.80
2022-09-21T19:16:03.727Z,2.17
2022-09-21T19:19:02.856Z,1.70
2022-09-21T19:22:04.852Z,2.07
2022-09-21T19:25:00.760Z,2.00
2022-09-21T19:27:54.187Z,1.70
2022-09-21T19:30:48.097Z,3.50
2022-09-21T19:33:50.074Z,1.90
2022-09-21T19:36:37.758Z,2.23
2022-09-21T19:39:26.603Z,1.60
2022-09-21T19:42:29.984Z,1.80
2022-09-21T19:45:34.843Z,1.90
2022-09-21T19:48:28.108Z,2.00
2022-09-21T19:51:19.796Z,2.07
2022-09-21T19:54:31.467Z,1.97
2022-09-21T19:57:39.175Z,2.00
2022-09-21T20:00:26.544Z,1.70
2022-09-21T20:03:17.683Z,1.80
2022-09-21T20:06:09.987Z,1.67
2022-09-21T20:09:05.337Z,1.67
2022-09-21T20:12:01.181Z,1.80
2022-09-21T20:14:54.527Z,1.83
2022-09-21T20:17:50.595Z,1.80
2022-09-21T20:20:38.205Z,1.90
2022-09-21T20:23:25.502Z,1.87
2022-09-21T20:26:24.916Z,1.97
2022-09-21T20:29:12.197Z,1.70
2022-09-21T20:32:01.029Z,1.87
2022-09-21T20:34:50.317Z,1.47
2022-09-21T20:37:37.928Z,2.00
2022-09-21T20:40:25.664Z,2.23
2022-09-21T20:43:14.232Z,1.90
2022-09-21T20:46:03.274Z,1.80
2022-09-21T20:48:55.345Z,1.93
2022-09-21T20:51:42.496Z,1.97
2022-09-21T20:54:29.466Z,1.67
2022-09-21T20:57:17.882Z,1.90
2022-09-21T21:00:06.854Z,2.10
2022-09-21T21:02:53.704Z,2.00
2022-09-21T21:05:41.701Z,2.20
2022-09-21T21:08:29.024Z,2.20
2022-09-21T21:11:16.322Z,2.00
2022-09-21T21:14:03.352Z,2.20
2022-09-21T21:16:50.559Z,2.20
2022-09-21T21:19:37.092Z,2.73
2022-09-21T21:22:25.158Z,1.90
2022-09-21T21:25:12.277Z,2.27
2022-09-21T21:27:59.885Z,1.73
2022-09-21T21:30:52.857Z,2.00
2022-09-21T21:33:40.088Z,1.93
2022-09-21T21:36:26.878Z,2.00
2022-09-21T21:39:14.945Z,2.30
2022-09-21T21:42:01.897Z,2.00
2022-09-21T21:44:50.533Z,2.23
2022-09-21T21:47:41.048Z,2.20
2022-09-21T21:50:27.696Z,2.40
2022-09-21T21:53:14.439Z,2.10
2022-09-21T21:56:07.910Z,2.03
2022-09-21T21:58:55.278Z,2.40
2022-09-21T22:01:42.596Z,1.93
2022-09-21T22:04:29.419Z,2.00
2022-09-21T22:07:16.245Z,1.80
2022-09-21T22:10:03.561Z,2.20
2022-09-21T22:12:52.615Z,2.53
2022-09-21T22:15:39.526Z,2.17
2022-09-21T22:18:28.375Z,2.07
2022-09-21T22:21:16.858Z,2.00
2022-09-21T22:24:06.066Z,1.93
2022-09-21T22:26:52.825Z,1.90
2022-09-21T22:29:41.220Z,2.07
2022-09-21T22:32:27.622Z,2.33
2022-09-21T22:35:14.427Z,2.00
2022-09-21T22:38:01.674Z,2.10
2022-09-21T22:40:48.497Z,2.00
2022-09-21T22:43:35.601Z,2.17
2022-09-21T22:46:24.860Z,1.83
2022-09-21T22:49:11.367Z,2.03
2022-09-21T22:51:58.159Z,2.60
2022-09-21T22:54:44.935Z,2.20
2022-09-21T22:57:31.708Z,1.77
2022-09-21T23:00:18.627Z,1.90
2022-09-21T23:03:07.097Z,2.00
2022-09-21T23:05:57.379Z,2.47
2022-09-21T23:08:44.413Z,1.93
2022-09-21T23:11:33.819Z,2.17
2022-09-21T23:14:21.166Z,2.17
2022-09-21T23:17:07.826Z,1.90
2022-09-21T23:19:56.465Z,2.37
2022-09-21T23:22:44.722Z,1.80
2022-09-21T23:25:31.470Z,1.90
2022-09-21T23:28:18.271Z,2.20
2022-09-21T23:31:07.053Z,1.80
2022-09-21T23:33:55.318Z,1.67
2022-09-21T23:36:45.140Z,2.43
2022-09-21T23:39:31.793Z,1.93
2022-09-21T23:42:18.473Z,1.80
2022-09-21T23:45:06.198Z,1.93
2022-09-21T23:47:52.617Z,1.67
2022-09-21T23:50:39.373Z,1.97
2022-09-21T23:53:29.124Z,1.77
2022-09-21T23:56:17.475Z,1.87
2022-09-21T23:59:04.384Z,2.00
